createdAt,value
2022-11-16T00:05:01.254Z,100629.00
2022-11-16T00:15:24.009Z,100621.00
2022-11-16T00:25:45.594Z,100616.00
2022-11-16T00:36:11.805Z,100607.00
2022-11-16T00:46:33.352Z,100606.00
2022-11-16T00:56:57.610Z,100593.00
2022-11-16T01:07:21.009Z,100604.00
2022-11-16T01:17:44.701Z,100605.00
2022-11-16T01:28:06.311Z,100612.00
2022-11-16T01:38:38.844Z,100614.00
2022-11-16T01:49:05.010Z,100597.00
2022-11-16T01:59:29.280Z,100586.00
2022-11-16T02:10:06.378Z,100577.00
2022-11-16T02:21:04.108Z,100558.00
2022-11-16T02:31:33.605Z,100550.00
2022-11-16T02:41:58.196Z,100533.00
2022-11-16T02:52:24.057Z,100525.00
2022-11-16T03:02:54.636Z,100516.00
2022-11-16T03:13:20.750Z,100520.00
2022-11-16T03:23:44.157Z,100521.00
2022-11-16T03:34:13.604Z,100514.00
2022-11-16T03:44:36.925Z,100502.00
2022-11-16T03:55:02.296Z,100501.00
2022-11-16T04:05:42.161Z,100491.00
2022-11-16T04:16:25.106Z,100475.00
2022-11-16T04:27:06.739Z,100478.00
2022-11-16T04:37:47.045Z,100479.00
2022-11-16T04:48:10.930Z,100472.00
2022-11-16T04:58:35.602Z,100475.00
2022-11-16T05:08:58.290Z,100464.00
2022-11-16T05:19:39.103Z,100456.00
2022-11-16T05:30:01.238Z,100465.00
2022-11-16T05:40:25.609Z,100480.00
2022-11-16T05:50:59.227Z,100488.00
2022-11-16T06:01:23.600Z,100479.00
2022-11-16T06:11:45.648Z,100475.00
2022-11-16T06:22:12.242Z,100493.00
2022-11-16T06:32:36.097Z,100477.00
2022-11-16T06:43:02.585Z,100499.00
2022-11-16T06:53:29.020Z,100494.00
2022-11-16T07:03:55.774Z,100507.00
2022-11-16T07:14:17.677Z,100508.00
2022-11-16T07:24:41.116Z,100507.00
2022-11-16T07:35:05.087Z,100510.00
2022-11-16T07:45:28.226Z,100501.00
2022-11-16T07:55:57.031Z,100514.00
2022-11-16T08:06:27.365Z,100505.00
2022-11-16T08:16:50.699Z,100512.00
2022-11-16T08:27:17.453Z,100501.00
2022-11-16T08:37:42.683Z,100488.00
2022-11-16T08:48:07.494Z,100494.00
2022-11-16T08:58:33.931Z,100474.00
2022-11-16T09:08:58.230Z,100459.00
2022-11-16T09:19:21.614Z,100454.00
2022-11-16T09:29:44.454Z,100457.00
2022-11-16T09:40:06.892Z,100439.00
2022-11-16T09:50:45.445Z,100436.00
2022-11-16T10:11:56.323Z,100441.00
2022-11-16T10:22:32.951Z,100425.00
2022-11-16T10:33:00.372Z,100419.00
2022-11-16T10:43:25.382Z,100403.00
2022-11-16T10:53:49.505Z,100409.00
2022-11-16T11:04:17.466Z,100422.00
2022-11-16T11:15:39.968Z,100408.00
2022-11-16T11:26:03.618Z,100409.00
2022-11-16T11:36:29.514Z,100405.00
2022-11-16T11:57:43.827Z,100411.00
2022-11-16T12:08:18.509Z,100402.00
2022-11-16T12:19:04.233Z,100405.00
2022-11-16T12:30:20.815Z,100408.00
2022-11-16T12:41:00.967Z,100420.00
2022-11-16T12:51:42.539Z,100415.00
2022-11-16T13:03:04.300Z,100416.00
2022-11-16T13:13:49.622Z,100400.00
2022-11-16T13:24:42.429Z,100394.00
2022-11-16T13:35:17.006Z,100384.00
2022-11-16T13:45:44.369Z,100395.00
2022-11-16T13:56:16.707Z,100383.00
2022-11-16T14:07:08.314Z,100399.00
2022-11-16T14:18:37.063Z,100382.00
2022-11-16T14:29:31.670Z,100375.00
2022-11-16T14:40:10.573Z,100379.00
2022-11-16T14:50:40.807Z,100369.00
2022-11-16T15:01:30.352Z,100362.00
2022-11-16T15:12:34.031Z,100365.00
2022-11-16T15:23:31.426Z,100372.00
2022-11-16T15:57:21.848Z,100377.00
2022-11-16T16:07:51.932Z,100356.00
2022-11-16T16:18:43.406Z,100352.00
2022-11-16T16:29:21.371Z,100364.00
2022-11-16T16:39:45.880Z,100366.00
2022-11-16T16:50:11.994Z,100360.00
2022-11-16T17:00:39.957Z,100362.00
2022-11-16T17:22:28.192Z,100371.00
2022-11-16T17:32:52.477Z,100369.00
2022-11-16T17:43:18.644Z,100386.00
2022-11-16T17:53:44.147Z,100388.00
2022-11-16T18:15:42.572Z,100389.00
2022-11-16T18:26:12.453Z,100392.00
2022-11-16T18:36:44.261Z,100383.00
2022-11-16T18:47:06.351Z,100384.00
2022-11-16T18:58:23.092Z,100366.00
2022-11-16T19:09:00.730Z,100379.00
2022-11-16T19:20:12.549Z,100384.00
2022-11-16T19:30:38.660Z,100375.00
2022-11-16T19:41:46.856Z,100382.00
2022-11-16T19:52:37.621Z,100380.00
2022-11-16T20:03:15.744Z,100400.00
2022-11-16T20:26:33.448Z,100389.00
2022-11-16T20:36:58.187Z,100398.00
2022-11-16T20:47:23.173Z,100400.00
2022-11-16T20:57:44.460Z,100414.00
2022-11-16T21:08:07.666Z,100411.00
2022-11-16T21:18:30.941Z,100402.00
2022-11-16T21:29:09.687Z,100411.00
2022-11-16T21:39:35.117Z,100412.00
2022-11-16T21:50:29.974Z,100417.00
2022-11-16T22:00:41.162Z,100415.00
2022-11-16T22:11:04.280Z,100396.00
2022-11-16T22:21:32.659Z,100417.00
2022-11-16T22:32:18.928Z,100424.00
2022-11-16T22:43:09.815Z,100417.00
2022-11-16T22:53:37.340Z,100393.00
2022-11-16T23:04:01.899Z,100404.00
2022-11-16T23:14:47.172Z,100400.00
2022-11-16T23:25:31.904Z,100381.00
2022-11-16T23:36:03.720Z,100372.00
2022-11-16T23:46:30.297Z,100357.00
2022-11-16T23:56:56.623Z,100357.00
